Veblen, South Dakota
Current Conditions -  °F | °C
As of 2:55 PM on Sunday 23 Nov 2014 (Local Time) from KGWR Reporting Station
Overcast Overcast  
Wind Chill: 22°   Ceiling: 2300
Heat Index: 34°   Visibility: 10mi
Dew Point: 27°   Wind: 23mph
Humidity: 75%   Direction: 300°WNW
Pressure: 29.5"   Gusts: 29mph
Location:  45.86°N, 97.29°W
Report Text: KGWR 232055Z AUTO 30020G25KT 10SM BKN023 OVC031 01/M03 A2950 RMK A01 P000
Loading
Personal Weather Stations






























Interactive Weather Map New forecast layout! Learn more

10-Day Weather Forecast

Advertisements
Track Severe Weather on mobile